San Antonio, Texas
Traffic Map
Current Weather Conditions
San Antonio, Texas
Broken Clouds
Broken Clouds
77°
Feels Like: 78°
Wind Chill: 77° Ceiling: 1600
Heat Index: 78° Visibility: 10mi
Dew Point: 73° Wind: 8mph
Humidity: 89% Direction: 170° (S)
Pressure: 30.04in Gusts: 0mph
Raw Report DataKSKF 221128Z AUTO 17007KT 10SM BKN016 25/23 A3004 RMK AO2 $
Traffic Incident Summary
Active as of:
Severity:
Category:
InformationThere was an issue retrieving the traffic information for this location. Please try a different location or try again shortly.
Advertisements
Track Severe Weather on mobile